This is the latest recevied weather packets stored in our database for station/object OE-2100. If no packets are shown the sender has not sent any weather packets the latest 10 day(s).
| Time | Temp. | Humidity | Pressure | Rain* | Wind** | Luminosity | Snow |
|---|---|---|---|---|---|---|---|
| 1788689468 | 20° C | 64% | 1025.7 hPa | - | - | - | - |
| 1788685868 | 20.56° C | 65% | 1026.7 hPa | - | - | - | - |
| 1788678668 | 18.33° C | 74% | 1026.3 hPa | - | - | - | - |
| 1788673267 | 15.56° C | 83% | 1027 hPa | - | - | - | - |
| 1788671468 | 15° C | 83% | 1027.1 hPa | - | - | - | - |
| 1788669667 | 15° C | 84% | 1027 hPa | - | - | - | - |
| 1788667867 | 15.56° C | 82% | 1026.9 hPa | - | - | - | - |
| 1788664268 | 16.11° C | 77% | 1025.7 hPa | - | - | - | - |
| 1788660668 | 17.22° C | 70% | 1025.4 hPa | - | - | - | - |
| 1788655268 | 17.78° C | 67% | 1025.2 hPa | - | - | - | - |
| 1788646269 | 17.22° C | 75% | 1025.5 hPa | - | - | - | - |
| 1788637268 | 18.33° C | 69% | 1024.1 hPa | - | - | - | - |
| 1788635469 | 18.33° C | 68% | 1024 hPa | - | - | - | - |
| 1788633668 | 18.33° C | 70% | 1023 hPa | - | - | - | - |
| 1788631868 | 17.78° C | 71% | 1023.1 hPa | - | - | - | - |
| 1788628269 | 18.33° C | 71% | 1023 hPa | - | - | - | - |
| 1788624668 | 18.89° C | 72% | 1022.8 hPa | - | - | - | - |
| 1788619268 | 17.78° C | 76% | 1023.1 hPa | - | - | - | - |
| 1788617468 | 17.78° C | 75% | 1023.1 hPa | - | - | - | - |
| 1788615668 | 17.78° C | 76% | 1023.1 hPa | - | - | - | - |
| 1788613868 | 18.33° C | 76% | 1023 hPa | - | - | - | - |
| 1788612068 | 18.89° C | 75% | 1022.9 hPa | - | - | - | - |
| 1788610268 | 18.33° C | 74% | 1023 hPa | - | - | - | - |
| 1788608468 | 17.22° C | 81% | 1023.2 hPa | - | - | - | - |
| 1788606668 | 18.89° C | 71% | 1022.8 hPa | - | - | - | - |
* Rain since midnight (hover to see other rain measurements)
** Current wind speed in m/s (hover to see current wind gust speed)